SAYO2: North Fork Red, OK

Data processed at Tue May 21 2019 21:50


All information presented herein is the property of the government of the United States of America and may be revised or deleted at any time without prior notice.
Dissemination of this information without the expressed written consent of the Public Affairs Office, Tulsa District U.S. Army Corps of Engineers is strictly prohibited.
These data are gathered electronically and, as presented, have not undergone any form of quality control. These data are not guaranteed to be valid or correct.
Go to home page.
Go to station list.
Go to home page.

Upstream stations:

Downstream station:
Previous Day
Next Day
Current Day
    
SHEF ID:       SAYO2     North Fork Red River near Sayre,
STATION TYPE:  
Regulating: Stage =     9.00, Flow =     5796

               PRECIP PRECIP(A)     STAGE  RIV-FLOW  BAT-LOAD
                   in        in        ft       cfs      volt
              Ccp-Rev   Ccp-Rev   Ccp-Rev   Ccp-Rev   Ccp-Rev
(US/Central)
05/21 00:00      0.00      0.00      3.10        49     12.49
05/21 01:00      0.17      0.00      3.21        60     12.49
05/21 02:00      0.37      0.00      3.61       119     12.49
05/21 03:00      0.05      0.00      4.12       236     12.41
05/21 04:00      0.06      0.00      4.42       331     12.41
05/21 05:00      0.13      0.00      4.56       382     12.41
05/21 06:00      0.00      0.00      4.78       474     12.41
05/21 07:00      0.00      0.00      4.90       529     12.41
05/21 08:00      0.00      0.00      5.09       626     12.41
05/21 09:00      0.00      0.00      5.46       845     12.49
05/21 10:00      0.00      0.00      6.02      1264     13.05
05/21 11:00      0.00      0.00      6.57      1789     13.44
05/21 12:00      0.00      0.00      6.77      2011     13.44
05/21 13:00      0.00      0.00      7.02      2312     13.53
05/21 14:00      0.00      0.00      7.19      2533      ----
05/21 15:00      0.00      0.00      7.27      2642     13.37
05/21 16:00      0.00      0.00      7.34      2740     13.21
05/21 17:00      0.00      0.00      7.27      2642     13.21
05/21 18:00      0.00      0.00      7.07      2376     13.21
05/21 19:00      0.00      0.00      6.96      2237     13.21
05/21 20:00      0.00      0.00      6.85      2104     13.05
05/21 21:00      0.00      0.00      6.78      2022     12.81
05/21 22:00      ----      ----      ----      ----      ----
05/21 23:00      ----      ----      ----      ----      ----